createdAt,value
2023-05-11T00:01:05.611Z,10.42
2023-05-11T00:03:34.119Z,10.40
2023-05-11T00:06:04.897Z,10.40
2023-05-11T00:08:41.332Z,10.37
2023-05-11T00:11:10.040Z,10.34
2023-05-11T00:13:38.338Z,10.31
2023-05-11T00:16:07.440Z,10.29
2023-05-11T00:18:35.875Z,10.26
2023-05-11T00:21:06.418Z,10.23
2023-05-11T00:23:38.441Z,10.19
2023-05-11T00:26:07.430Z,10.16
2023-05-11T00:28:39.473Z,10.14
2023-05-11T00:31:11.264Z,10.11
2023-05-11T00:33:59.052Z,10.07
2023-05-11T00:36:30.780Z,10.04
2023-05-11T00:39:04.473Z,10.02
2023-05-11T00:41:49.216Z,10.00
2023-05-11T00:44:20.864Z,9.96
2023-05-11T00:46:55.272Z,9.92
2023-05-11T00:49:24.052Z,9.88
2023-05-11T00:51:57.883Z,9.86
2023-05-11T00:54:27.797Z,9.84
2023-05-11T00:56:58.848Z,9.83
2023-05-11T00:59:31.849Z,9.81
2023-05-11T01:02:04.626Z,9.77
2023-05-11T01:04:38.964Z,9.72
2023-05-11T01:07:19.698Z,9.68
2023-05-11T01:10:16.592Z,9.65
2023-05-11T01:13:07.603Z,9.62
2023-05-11T01:15:56.639Z,9.60
2023-05-11T01:18:31.425Z,9.59
2023-05-11T01:21:08.919Z,9.59
2023-05-11T01:23:54.348Z,9.58
2023-05-11T01:26:33.792Z,9.57
2023-05-11T01:29:32.606Z,9.56
2023-05-11T01:32:18.430Z,9.54
2023-05-11T01:34:56.295Z,9.52
2023-05-11T01:37:31.667Z,9.47
2023-05-11T01:40:03.616Z,9.43
2023-05-11T01:42:55.131Z,9.40
2023-05-11T01:45:31.180Z,9.38
2023-05-11T01:48:10.193Z,9.35
2023-05-11T01:50:39.570Z,9.34
2023-05-11T01:53:23.854Z,9.33
2023-05-11T01:55:58.615Z,9.31
2023-05-11T01:58:33.085Z,9.29
2023-05-11T02:01:14.108Z,9.26
2023-05-11T02:03:48.614Z,9.23
2023-05-11T02:06:22.757Z,9.21
2023-05-11T02:08:56.930Z,9.18
2023-05-11T02:11:39.706Z,9.16
2023-05-11T02:14:28.473Z,9.15
2023-05-11T02:17:13.835Z,9.12
2023-05-11T02:20:08.372Z,9.10
2023-05-11T02:22:41.974Z,9.08
2023-05-11T02:25:22.689Z,9.06
2023-05-11T02:27:53.469Z,9.04
2023-05-11T02:30:36.121Z,9.02
2023-05-11T02:33:48.948Z,9.00
2023-05-11T02:36:22.556Z,8.99
2023-05-11T02:39:07.137Z,8.98
2023-05-11T02:41:46.933Z,8.96
2023-05-11T02:44:31.837Z,8.93
2023-05-11T02:47:06.430Z,8.91
2023-05-11T02:49:50.478Z,8.88
2023-05-11T02:52:21.654Z,8.85
2023-05-11T02:55:17.569Z,8.82
2023-05-11T02:58:04.318Z,8.80
2023-05-11T03:00:58.393Z,8.75
2023-05-11T03:03:42.399Z,8.71
2023-05-11T03:06:36.054Z,8.68
2023-05-11T03:09:12.446Z,8.64
2023-05-11T03:12:07.065Z,8.60
2023-05-11T03:14:41.370Z,8.57
2023-05-11T03:17:22.202Z,8.53
2023-05-11T03:19:57.012Z,8.51
2023-05-11T03:22:38.378Z,8.48
2023-05-11T03:25:12.586Z,8.46
2023-05-11T03:27:48.136Z,8.45
2023-05-11T03:30:53.876Z,8.42
2023-05-11T03:33:42.950Z,8.41
2023-05-11T03:36:23.158Z,8.41
2023-05-11T03:38:56.699Z,8.40
2023-05-11T03:41:38.468Z,8.38
2023-05-11T03:44:14.324Z,8.35
2023-05-11T03:47:23.586Z,8.33
2023-05-11T03:49:53.236Z,8.32
2023-05-11T03:52:32.830Z,8.30
2023-05-11T03:55:09.718Z,8.29
2023-05-11T03:57:49.620Z,8.28
2023-05-11T04:00:27.901Z,8.28
2023-05-11T04:03:23.398Z,8.29
2023-05-11T04:05:59.458Z,8.30
2023-05-11T04:08:28.618Z,8.32
2023-05-11T04:11:19.125Z,8.33
2023-05-11T04:13:53.167Z,8.35
2023-05-11T04:16:48.012Z,8.36
2023-05-11T04:19:22.971Z,8.38
2023-05-11T04:22:01.785Z,8.40
2023-05-11T04:24:40.202Z,8.42
2023-05-11T04:27:35.423Z,8.44
2023-05-11T04:30:23.553Z,8.46
2023-05-11T04:33:06.982Z,8.48
2023-05-11T04:35:45.759Z,8.50
2023-05-11T04:38:17.128Z,8.52
2023-05-11T04:41:06.816Z,8.54
2023-05-11T04:43:48.346Z,8.56
2023-05-11T04:46:22.979Z,8.58
2023-05-11T04:49:06.579Z,8.60
2023-05-11T04:51:42.775Z,8.63
2023-05-11T04:54:21.184Z,8.65
2023-05-11T04:56:54.781Z,8.67
2023-05-11T04:59:52.702Z,8.71
2023-05-11T05:02:31.354Z,8.74
2023-05-11T05:05:22.592Z,8.77
2023-05-11T05:08:04.024Z,8.80
2023-05-11T05:10:41.598Z,8.83
2023-05-11T05:13:31.613Z,8.87
2023-05-11T05:16:14.825Z,8.92
2023-05-11T05:18:46.969Z,8.96
2023-05-11T05:21:39.609Z,8.99
2023-05-11T05:24:12.178Z,9.03
2023-05-11T05:26:46.381Z,9.08
2023-05-11T05:29:35.651Z,9.11
2023-05-11T05:32:17.311Z,9.16
2023-05-11T05:34:47.266Z,9.20
2023-05-11T05:37:21.932Z,9.24
2023-05-11T05:40:20.386Z,9.28
2023-05-11T05:42:55.189Z,9.34
2023-05-11T05:45:39.546Z,9.38
2023-05-11T05:48:09.869Z,9.43
2023-05-11T05:50:39.280Z,9.47
2023-05-11T05:53:24.787Z,9.52
2023-05-11T05:55:59.882Z,9.58
2023-05-11T05:59:00.730Z,9.63
2023-05-11T06:01:35.684Z,9.68
2023-05-11T06:04:07.598Z,9.73
2023-05-11T06:06:40.078Z,9.78
2023-05-11T06:09:12.557Z,9.83
2023-05-11T06:11:56.466Z,9.89
2023-05-11T06:14:41.358Z,9.96
2023-05-11T06:17:10.272Z,10.02
2023-05-11T06:19:51.191Z,10.08
2023-05-11T06:22:26.010Z,10.15
2023-05-11T06:24:59.586Z,10.22
2023-05-11T06:27:32.062Z,10.28
2023-05-11T06:30:06.982Z,10.35
2023-05-11T06:32:37.207Z,10.41
2023-05-11T06:35:18.388Z,10.48
2023-05-11T06:37:52.136Z,10.55
2023-05-11T06:40:29.679Z,10.61
2023-05-11T06:43:10.690Z,10.68
2023-05-11T06:45:59.059Z,10.76
2023-05-11T06:48:31.002Z,10.83
2023-05-11T06:51:04.031Z,10.90
2023-05-11T06:53:32.822Z,10.95
2023-05-11T06:56:01.608Z,11.01
2023-05-11T06:58:33.730Z,11.08
2023-05-11T07:01:06.559Z,11.14
2023-05-11T07:03:40.403Z,11.22
2023-05-11T07:06:09.700Z,11.28
2023-05-11T07:08:42.157Z,11.36
2023-05-11T07:11:13.124Z,11.42
2023-05-11T07:13:42.567Z,11.49
2023-05-11T07:16:12.070Z,11.56
2023-05-11T07:18:43.582Z,11.63
2023-05-11T07:21:12.088Z,11.70
2023-05-11T07:23:40.834Z,11.76
2023-05-11T07:26:14.898Z,11.84
2023-05-11T07:28:46.549Z,11.91
2023-05-11T07:31:15.568Z,11.98
2023-05-11T07:33:47.817Z,12.05
2023-05-11T07:36:17.010Z,12.12
2023-05-11T07:38:46.011Z,12.19
2023-05-11T07:41:19.222Z,12.24
2023-05-11T07:43:48.340Z,12.31
2023-05-11T07:46:17.004Z,12.37
2023-05-11T07:48:48.091Z,12.43
2023-05-11T07:51:16.785Z,12.49
2023-05-11T07:53:45.403Z,12.55
2023-05-11T07:56:15.265Z,12.61
2023-05-11T07:58:44.649Z,12.66
2023-05-11T08:01:13.372Z,12.73
2023-05-11T08:03:42.500Z,12.80
2023-05-11T08:06:13.289Z,12.86
2023-05-11T08:08:42.359Z,12.92
2023-05-11T08:11:14.008Z,12.99
2023-05-11T08:13:42.490Z,13.06
2023-05-11T08:16:12.442Z,13.12
2023-05-11T08:18:41.786Z,13.19
2023-05-11T08:21:10.150Z,13.26
2023-05-11T08:23:39.265Z,13.33
2023-05-11T08:26:08.169Z,13.40
2023-05-11T08:28:38.181Z,13.50
2023-05-11T08:31:07.156Z,13.58
2023-05-11T08:33:38.833Z,13.66
2023-05-11T08:36:09.072Z,13.72
2023-05-11T08:38:37.957Z,13.78
2023-05-11T08:41:07.837Z,13.84
2023-05-11T08:43:36.806Z,13.90
2023-05-11T08:46:07.865Z,13.95
2023-05-11T08:48:36.977Z,14.01
2023-05-11T08:51:05.632Z,14.06
2023-05-11T08:53:34.108Z,14.12
2023-05-11T08:56:05.724Z,14.19
2023-05-11T08:58:39.206Z,14.26
2023-05-11T09:01:08.844Z,14.32
2023-05-11T09:03:39.398Z,14.39
2023-05-11T09:06:09.311Z,14.45
2023-05-11T09:08:37.932Z,14.52
2023-05-11T09:11:06.646Z,14.57
2023-05-11T09:13:35.721Z,14.62
2023-05-11T09:16:04.257Z,14.67
2023-05-11T09:18:32.528Z,14.72
2023-05-11T09:21:02.323Z,14.78
2023-05-11T09:23:32.286Z,14.83
2023-05-11T09:26:01.232Z,14.88
2023-05-11T09:28:36.019Z,14.94
2023-05-11T09:31:04.892Z,14.98
2023-05-11T09:33:33.389Z,15.03
2023-05-11T09:36:03.076Z,15.07
2023-05-11T09:38:32.371Z,15.13
2023-05-11T09:41:03.373Z,15.18
2023-05-11T09:43:32.724Z,15.22
2023-05-11T09:46:05.038Z,15.27
2023-05-11T09:48:35.221Z,15.31
2023-05-11T09:51:05.854Z,15.35
2023-05-11T09:53:46.412Z,15.39
2023-05-11T09:56:16.012Z,15.44
2023-05-11T09:58:46.460Z,15.49
2023-05-11T10:01:15.622Z,15.54
2023-05-11T10:03:48.905Z,15.58
2023-05-11T10:06:20.104Z,15.62
2023-05-11T10:08:50.234Z,15.66
2023-05-11T10:11:24.711Z,15.71
2023-05-11T10:13:54.636Z,15.77
2023-05-11T10:16:22.988Z,15.82
2023-05-11T10:18:52.174Z,15.87
2023-05-11T10:21:21.873Z,15.92
2023-05-11T10:23:50.059Z,15.96
2023-05-11T10:26:18.568Z,16.01
2023-05-11T10:28:47.227Z,16.05
2023-05-11T10:31:23.931Z,16.09
2023-05-11T10:33:53.663Z,16.13
2023-05-11T10:36:23.912Z,16.19
2023-05-11T10:38:55.663Z,16.24
2023-05-11T10:41:28.227Z,16.29
2023-05-11T10:44:14.776Z,16.34
2023-05-11T10:47:01.921Z,16.40
2023-05-11T10:49:44.886Z,16.45
2023-05-11T10:52:26.797Z,16.49
2023-05-11T10:55:06.645Z,16.53
2023-05-11T10:57:38.564Z,16.57
2023-05-11T11:00:31.317Z,16.60
2023-05-11T11:03:09.131Z,16.64
2023-05-11T11:05:38.985Z,16.68
2023-05-11T11:08:09.460Z,16.72
2023-05-11T11:10:39.164Z,16.74
2023-05-11T11:13:08.868Z,16.77
2023-05-11T11:15:55.611Z,16.80
2023-05-11T11:18:25.422Z,16.82
2023-05-11T11:20:55.369Z,16.85
2023-05-11T11:23:42.725Z,16.88
2023-05-11T11:26:15.691Z,16.92
2023-05-11T11:29:16.512Z,16.95
2023-05-11T11:31:44.619Z,17.00
2023-05-11T11:34:45.630Z,17.03
2023-05-11T11:37:15.882Z,17.07
2023-05-11T11:39:46.493Z,17.11
2023-05-11T11:42:16.230Z,17.13
2023-05-11T11:44:45.885Z,17.15
2023-05-11T11:47:14.978Z,17.17
2023-05-11T11:49:48.097Z,17.19
2023-05-11T11:52:28.810Z,17.21
2023-05-11T11:55:00.645Z,17.24
2023-05-11T11:57:30.159Z,17.26
2023-05-11T12:00:02.344Z,17.28
2023-05-11T12:02:44.400Z,17.31
2023-05-11T12:05:14.319Z,17.35
2023-05-11T12:07:45.102Z,17.40
2023-05-11T12:10:14.512Z,17.44
2023-05-11T12:12:46.758Z,17.48
2023-05-11T12:15:28.541Z,17.53
2023-05-11T12:17:56.911Z,17.58
2023-05-11T12:20:26.140Z,17.62
2023-05-11T12:22:55.103Z,17.67
2023-05-11T12:25:23.909Z,17.72
2023-05-11T12:27:55.331Z,17.77
2023-05-11T12:30:26.113Z,17.82
2023-05-11T12:32:57.750Z,17.87
2023-05-11T12:35:28.146Z,17.92
2023-05-11T12:37:57.577Z,17.96
2023-05-11T12:40:27.117Z,18.01
2023-05-11T12:42:56.712Z,18.06
2023-05-11T12:45:25.905Z,18.11
2023-05-11T12:47:55.269Z,18.16
2023-05-11T12:50:23.451Z,18.22
2023-05-11T12:52:51.848Z,18.27
2023-05-11T12:55:28.120Z,18.33
2023-05-11T12:58:10.997Z,18.38
2023-05-11T13:00:55.660Z,18.43
2023-05-11T13:03:26.112Z,18.49
2023-05-11T13:06:09.052Z,18.55
2023-05-11T13:08:39.216Z,18.61
2023-05-11T13:11:25.274Z,18.67
2023-05-11T13:13:54.509Z,18.72
2023-05-11T13:16:24.276Z,18.78
2023-05-11T13:19:03.391Z,18.83
2023-05-11T13:21:33.520Z,18.87
2023-05-11T13:24:04.186Z,18.91
2023-05-11T13:26:32.645Z,18.95
2023-05-11T13:29:10.887Z,18.99
2023-05-11T13:31:46.885Z,19.02
2023-05-11T13:34:16.755Z,19.05
2023-05-11T13:36:45.118Z,19.08
2023-05-11T13:39:13.590Z,19.10
2023-05-11T13:41:41.987Z,19.11
2023-05-11T13:44:10.957Z,19.13
2023-05-11T13:46:39.741Z,19.14
2023-05-11T13:49:08.818Z,19.16
2023-05-11T13:51:37.316Z,19.18
2023-05-11T13:54:05.734Z,19.18
2023-05-11T13:56:34.143Z,19.20
2023-05-11T13:59:02.597Z,19.21
2023-05-11T14:01:31.123Z,19.22
2023-05-11T14:03:59.610Z,19.22
2023-05-11T14:06:28.014Z,19.22
2023-05-11T14:08:57.115Z,19.22
2023-05-11T14:11:26.218Z,19.23
2023-05-11T14:13:54.653Z,19.23
2023-05-11T14:16:23.571Z,19.23
2023-05-11T14:18:52.455Z,19.24
2023-05-11T14:21:21.291Z,19.24
2023-05-11T14:24:06.787Z,19.24
2023-05-11T14:26:38.679Z,19.24
2023-05-11T14:29:07.667Z,19.24
2023-05-11T14:31:37.698Z,19.25
2023-05-11T14:34:06.686Z,19.26
2023-05-11T14:36:36.273Z,19.27
2023-05-11T14:39:04.615Z,19.29
2023-05-11T14:41:33.675Z,19.30
2023-05-11T14:44:02.025Z,19.30
2023-05-11T14:46:30.582Z,19.32
2023-05-11T14:48:58.815Z,19.33
2023-05-11T14:51:27.260Z,19.36
2023-05-11T14:53:56.027Z,19.37
2023-05-11T14:56:24.398Z,19.38
2023-05-11T14:58:52.956Z,19.40
2023-05-11T15:01:21.703Z,19.42
2023-05-11T15:03:50.917Z,19.43
2023-05-11T15:06:22.498Z,19.44
2023-05-11T15:08:51.510Z,19.46
2023-05-11T15:11:20.026Z,19.47
2023-05-11T15:13:48.716Z,19.48
2023-05-11T15:16:16.787Z,19.49
2023-05-11T15:18:45.930Z,19.50
2023-05-11T15:21:14.001Z,19.51
2023-05-11T15:23:42.479Z,19.52
2023-05-11T15:26:10.928Z,19.53
2023-05-11T15:28:39.342Z,19.53
2023-05-11T15:31:07.708Z,19.54
2023-05-11T15:33:36.505Z,19.55
2023-05-11T15:36:11.267Z,19.55
2023-05-11T15:38:39.774Z,19.55
2023-05-11T15:41:08.493Z,19.55
2023-05-11T15:43:38.326Z,19.55
2023-05-11T15:46:07.549Z,19.54
2023-05-11T15:48:36.336Z,19.54
2023-05-11T15:51:04.771Z,19.53
2023-05-11T15:53:33.088Z,19.52
2023-05-11T15:56:01.061Z,19.50
2023-05-11T15:58:29.475Z,19.50
2023-05-11T16:00:58.758Z,19.49
2023-05-11T16:03:28.639Z,19.48
2023-05-11T16:05:57.557Z,19.46
2023-05-11T16:08:25.859Z,19.45
2023-05-11T16:10:54.352Z,19.44
2023-05-11T16:13:22.486Z,19.44
2023-05-11T16:15:51.734Z,19.42
2023-05-11T16:18:20.296Z,19.41
2023-05-11T16:20:48.778Z,19.38
2023-05-11T16:23:17.098Z,19.36
2023-05-11T16:25:45.524Z,19.32
2023-05-11T16:28:13.858Z,19.29
2023-05-11T16:30:42.275Z,19.25
2023-05-11T16:33:11.140Z,19.22
2023-05-11T16:35:39.192Z,19.18
2023-05-11T16:38:16.279Z,19.14
2023-05-11T16:40:44.720Z,19.11
2023-05-11T16:43:13.142Z,19.09
2023-05-11T16:45:42.279Z,19.06
2023-05-11T16:48:11.423Z,19.02
2023-05-11T16:50:39.803Z,19.00
2023-05-11T16:53:08.800Z,18.97
2023-05-11T16:55:37.079Z,18.94
2023-05-11T16:58:05.589Z,18.92
2023-05-11T17:00:34.480Z,18.90
2023-05-11T17:03:03.107Z,18.88
2023-05-11T17:05:31.600Z,18.87
2023-05-11T17:07:59.953Z,18.85
2023-05-11T17:10:28.425Z,18.83
2023-05-11T17:12:57.795Z,18.81
2023-05-11T17:15:26.803Z,18.78
2023-05-11T17:17:56.469Z,18.75
2023-05-11T17:20:25.952Z,18.71
2023-05-11T17:22:54.317Z,18.68
2023-05-11T17:25:22.793Z,18.63
2023-05-11T17:27:51.604Z,18.60
2023-05-11T17:30:21.935Z,18.57
2023-05-11T17:32:51.189Z,18.53
2023-05-11T17:35:19.746Z,18.48
2023-05-11T17:37:48.242Z,18.44
2023-05-11T17:40:16.884Z,18.38
2023-05-11T17:42:46.056Z,18.33
2023-05-11T17:45:14.514Z,18.27
2023-05-11T17:47:43.719Z,18.22
2023-05-11T17:50:12.159Z,18.16
2023-05-11T17:52:40.550Z,18.08
2023-05-11T17:55:10.931Z,18.01
2023-05-11T17:57:39.691Z,17.95
2023-05-11T18:00:10.059Z,17.89
2023-05-11T18:02:38.615Z,17.80
2023-05-11T18:05:07.250Z,17.73
2023-05-11T18:07:35.748Z,17.66
2023-05-11T18:10:04.221Z,17.60
2023-05-11T18:12:32.640Z,17.55
2023-05-11T18:15:02.807Z,17.49
2023-05-11T18:17:31.508Z,17.42
2023-05-11T18:20:00.012Z,17.33
2023-05-11T18:22:30.894Z,17.27
2023-05-11T18:24:59.256Z,17.21
2023-05-11T18:27:27.256Z,17.17
2023-05-11T18:29:56.229Z,17.13
2023-05-11T18:32:28.094Z,17.10
2023-05-11T18:34:57.029Z,17.07
2023-05-11T18:37:25.992Z,17.04
2023-05-11T18:39:55.551Z,17.01
2023-05-11T18:42:23.638Z,16.97
2023-05-11T18:44:53.507Z,16.94
2023-05-11T18:47:23.089Z,16.91
2023-05-11T18:49:52.154Z,16.86
2023-05-11T18:52:20.824Z,16.83
2023-05-11T18:54:49.660Z,16.81
2023-05-11T18:57:20.243Z,16.78
2023-05-11T18:59:48.582Z,16.75
2023-05-11T19:02:17.344Z,16.71
2023-05-11T19:04:46.363Z,16.67
2023-05-11T19:07:14.447Z,16.63
2023-05-11T19:09:42.848Z,16.59
2023-05-11T19:12:11.276Z,16.57
2023-05-11T19:14:39.809Z,16.52
2023-05-11T19:17:07.952Z,16.49
2023-05-11T19:19:35.930Z,16.46
2023-05-11T19:24:51.642Z,16.39
2023-05-11T19:27:19.421Z,16.34
2023-05-11T19:29:49.643Z,16.30
2023-05-11T19:32:19.231Z,16.24
2023-05-11T19:34:47.295Z,16.18
2023-05-11T19:37:15.267Z,16.14
2023-05-11T19:39:44.053Z,16.09
2023-05-11T19:42:12.391Z,16.05
2023-05-11T19:44:43.573Z,16.00
2023-05-11T19:47:11.981Z,15.96
2023-05-11T19:49:40.081Z,15.92
2023-05-11T19:52:08.150Z,15.87
2023-05-11T19:54:36.120Z,15.82
2023-05-11T19:57:04.810Z,15.77
2023-05-11T19:59:33.227Z,15.72
2023-05-11T20:02:02.352Z,15.66
2023-05-11T20:04:30.786Z,15.61
2023-05-11T20:06:59.175Z,15.58
2023-05-11T20:09:27.191Z,15.54
2023-05-11T20:11:55.027Z,15.50
2023-05-11T20:14:23.283Z,15.46
2023-05-11T20:16:51.165Z,15.42
2023-05-11T20:19:19.056Z,15.39
2023-05-11T20:21:47.019Z,15.37
2023-05-11T20:24:14.853Z,15.35
2023-05-11T20:26:42.836Z,15.34
2023-05-11T20:29:10.685Z,15.32
2023-05-11T20:31:39.104Z,15.30
2023-05-11T20:34:07.309Z,15.29
2023-05-11T20:36:35.497Z,15.28
2023-05-11T20:39:03.467Z,15.28
2023-05-11T20:41:31.627Z,15.28
2023-05-11T20:43:59.603Z,15.28
2023-05-11T20:46:27.451Z,15.29
2023-05-11T20:48:55.546Z,15.28
2023-05-11T20:51:23.482Z,15.25
2023-05-11T20:53:51.767Z,15.24
2023-05-11T20:56:19.623Z,15.22
2023-05-11T20:58:47.844Z,15.19
2023-05-11T21:01:15.645Z,15.16
2023-05-11T21:03:43.555Z,15.12
2023-05-11T21:06:11.438Z,15.07
2023-05-11T21:08:39.339Z,15.01
2023-05-11T21:11:07.225Z,14.94
2023-05-11T21:13:35.097Z,14.87
2023-05-11T21:16:04.199Z,14.79
2023-05-11T21:18:32.813Z,14.70
2023-05-11T21:21:01.339Z,14.64
2023-05-11T21:23:29.712Z,14.56
2023-05-11T21:25:58.338Z,14.51
2023-05-11T21:28:27.107Z,14.46
2023-05-11T21:30:55.203Z,14.42
2023-05-11T21:33:23.595Z,14.38
2023-05-11T21:35:51.570Z,14.34
2023-05-11T21:38:19.442Z,14.31
2023-05-11T21:40:54.781Z,14.28
2023-05-11T21:43:22.664Z,14.25
2023-05-11T21:45:50.917Z,14.23
2023-05-11T21:48:18.910Z,14.22
2023-05-11T21:50:51.367Z,14.21
2023-05-11T21:53:19.239Z,14.20
2023-05-11T21:55:47.111Z,14.19
2023-05-11T21:58:14.914Z,14.17
2023-05-11T22:00:43.012Z,14.15
2023-05-11T22:03:11.055Z,14.12
2023-05-11T22:05:38.947Z,14.10
2023-05-11T22:08:15.025Z,14.07
2023-05-11T22:10:43.725Z,14.03
2023-05-11T22:13:11.743Z,14.01
2023-05-11T22:15:41.340Z,13.97
2023-05-11T22:18:09.572Z,13.93
2023-05-11T22:20:37.529Z,13.91
2023-05-11T22:23:05.367Z,13.89
2023-05-11T22:25:33.752Z,13.87
2023-05-11T22:28:01.552Z,13.83
2023-05-11T22:30:29.347Z,13.80
2023-05-11T22:32:57.185Z,13.77
2023-05-11T22:35:25.813Z,13.74
2023-05-11T22:37:54.452Z,13.72
2023-05-11T22:40:22.196Z,13.71
2023-05-11T22:42:49.982Z,13.68
2023-05-11T22:45:17.709Z,13.67
2023-05-11T22:47:45.570Z,13.66
2023-05-11T22:50:13.697Z,13.65
2023-05-11T22:52:41.695Z,13.65
2023-05-11T22:55:09.762Z,13.65
2023-05-11T22:57:37.848Z,13.65
2023-05-11T23:00:06.085Z,13.65
2023-05-11T23:02:35.955Z,13.65
2023-05-11T23:05:04.774Z,13.65
2023-05-11T23:07:32.774Z,13.64
2023-05-11T23:10:00.598Z,13.62
2023-05-11T23:12:28.368Z,13.59
2023-05-11T23:14:56.203Z,13.57
2023-05-11T23:17:24.179Z,13.54
2023-05-11T23:19:52.042Z,13.51
2023-05-11T23:22:20.251Z,13.47
2023-05-11T23:24:48.021Z,13.42
2023-05-11T23:27:17.231Z,13.39
2023-05-11T23:29:45.096Z,13.36
2023-05-11T23:32:12.890Z,13.32
2023-05-11T23:34:41.018Z,13.26
2023-05-11T23:37:08.845Z,13.21
2023-05-11T23:39:36.789Z,13.17
2023-05-11T23:42:05.298Z,13.13
2023-05-11T23:44:35.332Z,13.07
2023-05-11T23:47:03.220Z,13.03
2023-05-11T23:49:31.002Z,13.01
2023-05-11T23:51:58.830Z,12.97
2023-05-11T23:54:26.688Z,12.94
2023-05-11T23:56:54.568Z,12.88
2023-05-11T23:59:22.334Z,12.85
